sensor_id;sensor_type;location;lat;lon;timestamp;P1;durP1;ratioP1;P2;durP2;ratioP2
5585;SDS011;2815;54.094;12.112;2023-03-13T00:00:52;36.38;;;12.88;;
5585;SDS011;2815;54.094;12.112;2023-03-13T00:03:23;29.17;;;11.77;;
5585;SDS011;2815;54.094;12.112;2023-03-13T00:05:54;38.20;;;14.05;;
5585;SDS011;2815;54.094;12.112;2023-03-13T00:08:22;51.72;;;16.23;;
5585;SDS011;2815;54.094;12.112;2023-03-13T00:10:51;37.33;;;14.55;;
5585;SDS011;2815;54.094;12.112;2023-03-13T00:13:19;46.03;;;15.50;;
5585;SDS011;2815;54.094;12.112;2023-03-13T00:15:47;51.60;;;15.98;;
5585;SDS011;2815;54.094;12.112;2023-03-13T00:18:15;51.17;;;14.20;;
5585;SDS011;2815;54.094;12.112;2023-03-13T00:20:44;52.40;;;16.90;;
5585;SDS011;2815;54.094;12.112;2023-03-13T00:23:14;50.13;;;16.00;;
5585;SDS011;2815;54.094;12.112;2023-03-13T00:25:42;45.35;;;15.35;;
5585;SDS011;2815;54.094;12.112;2023-03-13T00:28:10;41.25;;;14.93;;
5585;SDS011;2815;54.094;12.112;2023-03-13T00:30:38;42.28;;;13.38;;
5585;SDS011;2815;54.094;12.112;2023-03-13T00:33:06;43.28;;;14.45;;
5585;SDS011;2815;54.094;12.112;2023-03-13T00:35:34;40.63;;;15.35;;
5585;SDS011;2815;54.094;12.112;2023-03-13T00:38:03;53.25;;;15.90;;
5585;SDS011;2815;54.094;12.112;2023-03-13T00:40:31;38.78;;;14.63;;
5585;SDS011;2815;54.094;12.112;2023-03-13T00:42:59;43.67;;;14.70;;
5585;SDS011;2815;54.094;12.112;2023-03-13T00:45:27;45.85;;;15.48;;
5585;SDS011;2815;54.094;12.112;2023-03-13T00:47:55;46.35;;;15.32;;
5585;SDS011;2815;54.094;12.112;2023-03-13T00:50:23;32.15;;;12.20;;
5585;SDS011;2815;54.094;12.112;2023-03-13T00:52:51;33.35;;;12.10;;
5585;SDS011;2815;54.094;12.112;2023-03-13T00:55:21;41.03;;;14.93;;
5585;SDS011;2815;54.094;12.112;2023-03-13T00:57:48;39.03;;;14.80;;
5585;SDS011;2815;54.094;12.112;2023-03-13T01:00:17;33.63;;;12.93;;
5585;SDS011;2815;54.094;12.112;2023-03-13T01:02:46;35.00;;;13.70;;
5585;SDS011;2815;54.094;12.112;2023-03-13T01:05:14;47.80;;;16.08;;
5585;SDS011;2815;54.094;12.112;2023-03-13T01:07:42;44.65;;;14.20;;
5585;SDS011;2815;54.094;12.112;2023-03-13T01:10:10;38.97;;;14.07;;
5585;SDS011;2815;54.094;12.112;2023-03-13T01:12:39;40.42;;;13.43;;
5585;SDS011;2815;54.094;12.112;2023-03-13T01:15:07;48.65;;;12.88;;
5585;SDS011;2815;54.094;12.112;2023-03-13T01:17:36;35.53;;;14.27;;
5585;SDS011;2815;54.094;12.112;2023-03-13T01:20:05;48.10;;;13.80;;
5585;SDS011;2815;54.094;12.112;2023-03-13T01:22:34;38.67;;;11.85;;
5585;SDS011;2815;54.094;12.112;2023-03-13T01:25:02;28.10;;;11.32;;
5585;SDS011;2815;54.094;12.112;2023-03-13T01:27:31;32.08;;;13.25;;
5585;SDS011;2815;54.094;12.112;2023-03-13T01:30:00;31.27;;;11.35;;
5585;SDS011;2815;54.094;12.112;2023-03-13T01:32:28;32.45;;;12.32;;
5585;SDS011;2815;54.094;12.112;2023-03-13T01:34:56;36.80;;;11.73;;
5585;SDS011;2815;54.094;12.112;2023-03-13T01:37:24;45.83;;;12.07;;
5585;SDS011;2815;54.094;12.112;2023-03-13T01:39:52;30.30;;;11.20;;
5585;SDS011;2815;54.094;12.112;2023-03-13T01:42:20;36.63;;;12.65;;
5585;SDS011;2815;54.094;12.112;2023-03-13T01:44:49;30.25;;;11.30;;
5585;SDS011;2815;54.094;12.112;2023-03-13T01:47:19;32.53;;;11.45;;
5585;SDS011;2815;54.094;12.112;2023-03-13T01:50:06;32.63;;;10.02;;
5585;SDS011;2815;54.094;12.112;2023-03-13T01:52:50;31.00;;;9.90;;
5585;SDS011;2815;54.094;12.112;2023-03-13T01:55:25;34.28;;;11.32;;
5585;SDS011;2815;54.094;12.112;2023-03-13T01:57:53;33.08;;;10.50;;
5585;SDS011;2815;54.094;12.112;2023-03-13T02:00:23;36.00;;;10.85;;
5585;SDS011;2815;54.094;12.112;2023-03-13T02:02:55;30.13;;;8.43;;
5585;SDS011;2815;54.094;12.112;2023-03-13T02:05:26;25.25;;;8.43;;
5585;SDS011;2815;54.094;12.112;2023-03-13T02:07:55;32.50;;;9.52;;
5585;SDS011;2815;54.094;12.112;2023-03-13T02:10:26;37.00;;;10.40;;
5585;SDS011;2815;54.094;12.112;2023-03-13T02:12:55;23.13;;;8.30;;
5585;SDS011;2815;54.094;12.112;2023-03-13T02:19:28;22.52;;;7.65;;
5585;SDS011;2815;54.094;12.112;2023-03-13T02:22:01;24.52;;;8.35;;
5585;SDS011;2815;54.094;12.112;2023-03-13T02:24:33;28.40;;;9.82;;
5585;SDS011;2815;54.094;12.112;2023-03-13T02:27:06;29.85;;;10.63;;
5585;SDS011;2815;54.094;12.112;2023-03-13T02:29:37;27.75;;;9.30;;
5585;SDS011;2815;54.094;12.112;2023-03-13T02:32:06;30.80;;;10.43;;
5585;SDS011;2815;54.094;12.112;2023-03-13T02:34:34;29.33;;;8.57;;
5585;SDS011;2815;54.094;12.112;2023-03-13T02:37:05;27.13;;;9.05;;
5585;SDS011;2815;54.094;12.112;2023-03-13T02:39:37;25.70;;;9.82;;
5585;SDS011;2815;54.094;12.112;2023-03-13T02:42:07;35.17;;;10.13;;
5585;SDS011;2815;54.094;12.112;2023-03-13T02:44:38;25.08;;;8.20;;
5585;SDS011;2815;54.094;12.112;2023-03-13T02:47:07;16.30;;;8.10;;
5585;SDS011;2815;54.094;12.112;2023-03-13T02:49:35;24.92;;;8.98;;
5585;SDS011;2815;54.094;12.112;2023-03-13T02:52:05;31.23;;;10.15;;
5585;SDS011;2815;54.094;12.112;2023-03-13T02:54:40;35.22;;;9.38;;
5585;SDS011;2815;54.094;12.112;2023-03-13T02:57:10;28.92;;;9.23;;
5585;SDS011;2815;54.094;12.112;2023-03-13T02:59:38;33.28;;;9.50;;
5585;SDS011;2815;54.094;12.112;2023-03-13T03:02:06;36.42;;;9.73;;
5585;SDS011;2815;54.094;12.112;2023-03-13T03:04:35;38.13;;;8.98;;
5585;SDS011;2815;54.094;12.112;2023-03-13T03:07:03;18.80;;;7.10;;
5585;SDS011;2815;54.094;12.112;2023-03-13T03:09:32;40.05;;;10.07;;
5585;SDS011;2815;54.094;12.112;2023-03-13T03:12:05;29.45;;;9.52;;
5585;SDS011;2815;54.094;12.112;2023-03-13T03:14:35;20.17;;;8.75;;
5585;SDS011;2815;54.094;12.112;2023-03-13T03:17:04;24.00;;;7.80;;
5585;SDS011;2815;54.094;12.112;2023-03-13T03:19:32;31.92;;;10.13;;
5585;SDS011;2815;54.094;12.112;2023-03-13T03:22:00;40.13;;;10.25;;
5585;SDS011;2815;54.094;12.112;2023-03-13T03:24:28;39.17;;;10.23;;
5585;SDS011;2815;54.094;12.112;2023-03-13T03:26:56;19.55;;;8.20;;
5585;SDS011;2815;54.094;12.112;2023-03-13T03:29:29;30.48;;;8.52;;
5585;SDS011;2815;54.094;12.112;2023-03-13T03:31:59;34.20;;;10.63;;
5585;SDS011;2815;54.094;12.112;2023-03-13T03:34:28;32.83;;;10.27;;
5585;SDS011;2815;54.094;12.112;2023-03-13T03:36:57;41.22;;;10.93;;
5585;SDS011;2815;54.094;12.112;2023-03-13T03:39:26;32.83;;;9.38;;
5585;SDS011;2815;54.094;12.112;2023-03-13T03:41:54;42.55;;;12.00;;
5585;SDS011;2815;54.094;12.112;2023-03-13T03:44:23;24.75;;;8.15;;
5585;SDS011;2815;54.094;12.112;2023-03-13T03:46:53;26.00;;;8.77;;
5585;SDS011;2815;54.094;12.112;2023-03-13T03:49:25;29.98;;;10.57;;
5585;SDS011;2815;54.094;12.112;2023-03-13T03:51:53;33.58;;;10.27;;
5585;SDS011;2815;54.094;12.112;2023-03-13T03:57:39;21.58;;;9.38;;
5585;SDS011;2815;54.094;12.112;2023-03-13T04:00:12;33.25;;;9.52;;
5585;SDS011;2815;54.094;12.112;2023-03-13T04:02:47;28.00;;;10.00;;
5585;SDS011;2815;54.094;12.112;2023-03-13T04:05:18;25.90;;;7.97;;
5585;SDS011;2815;54.094;12.112;2023-03-13T04:07:46;25.02;;;10.55;;
5585;SDS011;2815;54.094;12.112;2023-03-13T04:10:15;25.63;;;8.90;;
5585;SDS011;2815;54.094;12.112;2023-03-13T04:12:44;24.20;;;9.35;;
5585;SDS011;2815;54.094;12.112;2023-03-13T04:15:13;37.75;;;9.73;;
5585;SDS011;2815;54.094;12.112;2023-03-13T04:17:41;27.15;;;9.93;;
5585;SDS011;2815;54.094;12.112;2023-03-13T04:20:10;25.05;;;9.52;;
5585;SDS011;2815;54.094;12.112;2023-03-13T04:22:41;21.00;;;8.00;;
5585;SDS011;2815;54.094;12.112;2023-03-13T04:25:10;27.27;;;9.90;;
5585;SDS011;2815;54.094;12.112;2023-03-13T04:27:38;30.20;;;8.88;;
5585;SDS011;2815;54.094;12.112;2023-03-13T04:30:08;22.63;;;8.52;;
5585;SDS011;2815;54.094;12.112;2023-03-13T04:32:36;25.00;;;9.80;;
5585;SDS011;2815;54.094;12.112;2023-03-13T04:35:40;23.70;;;9.30;;
5585;SDS011;2815;54.094;12.112;2023-03-13T04:38:39;32.50;;;9.98;;
5585;SDS011;2815;54.094;12.112;2023-03-13T04:41:26;24.95;;;7.00;;
5585;SDS011;2815;54.094;12.112;2023-03-13T04:44:14;33.08;;;10.00;;
5585;SDS011;2815;54.094;12.112;2023-03-13T04:47:01;34.92;;;10.07;;
5585;SDS011;2815;54.094;12.112;2023-03-13T04:49:52;27.17;;;9.35;;
5585;SDS011;2815;54.094;12.112;2023-03-13T04:52:33;18.98;;;6.55;;
5585;SDS011;2815;54.094;12.112;2023-03-13T04:55:20;22.45;;;5.93;;
5585;SDS011;2815;54.094;12.112;2023-03-13T04:58:11;25.65;;;7.75;;
5585;SDS011;2815;54.094;12.112;2023-03-13T05:00:44;21.20;;;6.70;;
5585;SDS011;2815;54.094;12.112;2023-03-13T05:03:31;24.33;;;7.93;;
5585;SDS011;2815;54.094;12.112;2023-03-13T05:06:10;23.88;;;7.20;;
5585;SDS011;2815;54.094;12.112;2023-03-13T05:08:57;20.40;;;5.93;;
5585;SDS011;2815;54.094;12.112;2023-03-13T05:14:30;14.88;;;6.25;;
5585;SDS011;2815;54.094;12.112;2023-03-13T05:17:18;17.50;;;6.30;;
5585;SDS011;2815;54.094;12.112;2023-03-13T05:19:49;15.52;;;4.55;;
5585;SDS011;2815;54.094;12.112;2023-03-13T05:22:27;17.27;;;5.82;;
5585;SDS011;2815;54.094;12.112;2023-03-13T05:25:16;17.48;;;5.90;;
5585;SDS011;2815;54.094;12.112;2023-03-13T05:28:00;22.63;;;6.32;;
5585;SDS011;2815;54.094;12.112;2023-03-13T05:30:51;13.10;;;4.18;;
5585;SDS011;2815;54.094;12.112;2023-03-13T05:33:30;11.90;;;4.00;;
5585;SDS011;2815;54.094;12.112;2023-03-13T05:36:21;17.70;;;5.47;;
5585;SDS011;2815;54.094;12.112;2023-03-13T05:39:09;24.42;;;5.90;;
5585;SDS011;2815;54.094;12.112;2023-03-13T05:41:46;16.33;;;4.43;;
5585;SDS011;2815;54.094;12.112;2023-03-13T05:44:41;16.17;;;4.03;;
5585;SDS011;2815;54.094;12.112;2023-03-13T05:47:36;19.80;;;4.78;;
5585;SDS011;2815;54.094;12.112;2023-03-13T05:50:21;26.40;;;6.55;;
5585;SDS011;2815;54.094;12.112;2023-03-13T05:53:06;33.83;;;6.28;;
5585;SDS011;2815;54.094;12.112;2023-03-13T05:56:04;13.05;;;4.70;;
5585;SDS011;2815;54.094;12.112;2023-03-13T05:58:55;22.08;;;5.57;;
5585;SDS011;2815;54.094;12.112;2023-03-13T06:01:47;21.40;;;5.25;;
5585;SDS011;2815;54.094;12.112;2023-03-13T06:04:24;18.92;;;5.65;;
5585;SDS011;2815;54.094;12.112;2023-03-13T06:06:53;37.05;;;5.53;;
5585;SDS011;2815;54.094;12.112;2023-03-13T06:09:22;18.52;;;4.35;;
5585;SDS011;2815;54.094;12.112;2023-03-13T06:11:51;21.13;;;4.30;;
5585;SDS011;2815;54.094;12.112;2023-03-13T06:14:19;23.73;;;6.32;;
5585;SDS011;2815;54.094;12.112;2023-03-13T06:17:08;21.38;;;5.32;;
5585;SDS011;2815;54.094;12.112;2023-03-13T06:19:36;22.83;;;5.13;;
5585;SDS011;2815;54.094;12.112;2023-03-13T06:22:03;21.50;;;5.30;;
5585;SDS011;2815;54.094;12.112;2023-03-13T06:24:32;19.13;;;4.90;;
5585;SDS011;2815;54.094;12.112;2023-03-13T06:27:00;10.82;;;4.32;;
5585;SDS011;2815;54.094;12.112;2023-03-13T06:29:28;18.50;;;5.30;;
5585;SDS011;2815;54.094;12.112;2023-03-13T06:31:56;16.98;;;4.50;;
5585;SDS011;2815;54.094;12.112;2023-03-13T06:34:25;15.65;;;4.55;;
5585;SDS011;2815;54.094;12.112;2023-03-13T06:36:53;24.38;;;4.70;;
5585;SDS011;2815;54.094;12.112;2023-03-13T06:39:23;18.48;;;3.85;;
5585;SDS011;2815;54.094;12.112;2023-03-13T06:41:51;17.73;;;4.00;;
5585;SDS011;2815;54.094;12.112;2023-03-13T06:44:19;21.00;;;4.65;;
5585;SDS011;2815;54.094;12.112;2023-03-13T06:46:48;20.33;;;4.53;;
5585;SDS011;2815;54.094;12.112;2023-03-13T06:49:16;25.30;;;6.30;;
5585;SDS011;2815;54.094;12.112;2023-03-13T06:51:45;31.80;;;6.78;;
5585;SDS011;2815;54.094;12.112;2023-03-13T06:54:14;17.75;;;4.55;;
5585;SDS011;2815;54.094;12.112;2023-03-13T06:56:42;16.20;;;3.95;;
5585;SDS011;2815;54.094;12.112;2023-03-13T06:59:10;19.08;;;4.35;;
5585;SDS011;2815;54.094;12.112;2023-03-13T07:01:38;19.58;;;4.28;;
5585;SDS011;2815;54.094;12.112;2023-03-13T07:04:08;7.95;;;2.67;;
5585;SDS011;2815;54.094;12.112;2023-03-13T07:06:43;12.25;;;3.78;;
5585;SDS011;2815;54.094;12.112;2023-03-13T07:09:12;22.70;;;4.38;;
5585;SDS011;2815;54.094;12.112;2023-03-13T07:11:40;17.77;;;3.97;;
5585;SDS011;2815;54.094;12.112;2023-03-13T07:14:08;12.40;;;4.22;;
5585;SDS011;2815;54.094;12.112;2023-03-13T07:16:43;10.38;;;3.38;;
5585;SDS011;2815;54.094;12.112;2023-03-13T07:19:11;15.40;;;4.28;;
5585;SDS011;2815;54.094;12.112;2023-03-13T07:21:40;15.93;;;4.30;;
5585;SDS011;2815;54.094;12.112;2023-03-13T07:24:09;28.10;;;4.60;;
5585;SDS011;2815;54.094;12.112;2023-03-13T07:26:39;14.05;;;4.18;;
5585;SDS011;2815;54.094;12.112;2023-03-13T07:29:24;13.50;;;3.90;;
5585;SDS011;2815;54.094;12.112;2023-03-13T07:31:54;9.18;;;2.90;;
5585;SDS011;2815;54.094;12.112;2023-03-13T07:34:22;8.80;;;3.60;;
5585;SDS011;2815;54.094;12.112;2023-03-13T07:36:50;12.35;;;2.95;;
5585;SDS011;2815;54.094;12.112;2023-03-13T07:39:18;10.18;;;3.38;;
5585;SDS011;2815;54.094;12.112;2023-03-13T07:41:47;11.10;;;2.60;;
5585;SDS011;2815;54.094;12.112;2023-03-13T07:44:16;15.63;;;3.15;;
5585;SDS011;2815;54.094;12.112;2023-03-13T07:46:44;6.22;;;2.30;;
5585;SDS011;2815;54.094;12.112;2023-03-13T07:49:13;8.00;;;2.70;;
5585;SDS011;2815;54.094;12.112;2023-03-13T07:51:41;10.80;;;3.55;;
5585;SDS011;2815;54.094;12.112;2023-03-13T07:54:13;9.23;;;2.17;;
5585;SDS011;2815;54.094;12.112;2023-03-13T07:56:40;13.55;;;3.22;;
5585;SDS011;2815;54.094;12.112;2023-03-13T07:59:10;13.43;;;3.38;;
5585;SDS011;2815;54.094;12.112;2023-03-13T08:01:38;11.15;;;2.80;;
5585;SDS011;2815;54.094;12.112;2023-03-13T08:04:07;16.45;;;2.15;;
5585;SDS011;2815;54.094;12.112;2023-03-13T08:06:37;9.93;;;2.70;;
5585;SDS011;2815;54.094;12.112;2023-03-13T08:09:06;12.05;;;2.70;;
5585;SDS011;2815;54.094;12.112;2023-03-13T08:11:36;8.02;;;1.98;;
5585;SDS011;2815;54.094;12.112;2023-03-13T08:14:06;8.25;;;2.03;;
5585;SDS011;2815;54.094;12.112;2023-03-13T08:16:35;5.65;;;2.08;;
5585;SDS011;2815;54.094;12.112;2023-03-13T08:19:03;11.80;;;2.08;;
5585;SDS011;2815;54.094;12.112;2023-03-13T08:21:32;5.25;;;1.83;;
5585;SDS011;2815;54.094;12.112;2023-03-13T08:24:02;8.63;;;3.05;;
5585;SDS011;2815;54.094;12.112;2023-03-13T08:26:32;8.70;;;2.05;;
5585;SDS011;2815;54.094;12.112;2023-03-13T08:29:03;2.05;;;1.63;;
5585;SDS011;2815;54.094;12.112;2023-03-13T08:31:32;3.38;;;1.58;;
5585;SDS011;2815;54.094;12.112;2023-03-13T08:34:03;10.65;;;2.45;;
5585;SDS011;2815;54.094;12.112;2023-03-13T08:36:31;4.40;;;1.85;;
5585;SDS011;2815;54.094;12.112;2023-03-13T08:39:01;8.63;;;2.40;;
5585;SDS011;2815;54.094;12.112;2023-03-13T08:41:32;2.45;;;1.60;;
5585;SDS011;2815;54.094;12.112;2023-03-13T08:44:01;7.15;;;2.28;;
5585;SDS011;2815;54.094;12.112;2023-03-13T08:46:30;3.80;;;1.80;;
5585;SDS011;2815;54.094;12.112;2023-03-13T08:49:00;5.43;;;1.83;;
5585;SDS011;2815;54.094;12.112;2023-03-13T08:51:30;8.43;;;2.25;;
5585;SDS011;2815;54.094;12.112;2023-03-13T08:53:59;9.93;;;2.40;;
5585;SDS011;2815;54.094;12.112;2023-03-13T08:56:28;5.45;;;2.40;;
5585;SDS011;2815;54.094;12.112;2023-03-13T08:58:58;4.97;;;2.60;;
5585;SDS011;2815;54.094;12.112;2023-03-13T09:01:28;8.65;;;2.38;;
5585;SDS011;2815;54.094;12.112;2023-03-13T09:03:58;9.43;;;2.65;;
5585;SDS011;2815;54.094;12.112;2023-03-13T09:06:31;6.05;;;2.05;;
5585;SDS011;2815;54.094;12.112;2023-03-13T09:09:00;6.43;;;2.55;;
5585;SDS011;2815;54.094;12.112;2023-03-13T09:11:28;8.63;;;3.00;;
5585;SDS011;2815;54.094;12.112;2023-03-13T09:13:56;4.90;;;1.73;;
5585;SDS011;2815;54.094;12.112;2023-03-13T09:16:26;4.35;;;2.35;;
5585;SDS011;2815;54.094;12.112;2023-03-13T09:18:56;3.17;;;2.03;;
5585;SDS011;2815;54.094;12.112;2023-03-13T09:21:25;6.97;;;2.40;;
5585;SDS011;2815;54.094;12.112;2023-03-13T09:23:55;8.82;;;2.85;;
5585;SDS011;2815;54.094;12.112;2023-03-13T09:26:24;5.40;;;2.50;;
5585;SDS011;2815;54.094;12.112;2023-03-13T09:28:53;4.65;;;2.42;;
5585;SDS011;2815;54.094;12.112;2023-03-13T09:31:22;9.60;;;3.00;;
5585;SDS011;2815;54.094;12.112;2023-03-13T09:33:51;11.27;;;2.97;;
5585;SDS011;2815;54.094;12.112;2023-03-13T09:36:20;3.50;;;2.28;;
5585;SDS011;2815;54.094;12.112;2023-03-13T09:38:49;4.32;;;2.65;;
5585;SDS011;2815;54.094;12.112;2023-03-13T09:41:23;4.30;;;2.13;;
5585;SDS011;2815;54.094;12.112;2023-03-13T09:43:56;7.30;;;2.45;;
5585;SDS011;2815;54.094;12.112;2023-03-13T09:46:30;4.10;;;2.25;;
5585;SDS011;2815;54.094;12.112;2023-03-13T09:49:03;6.82;;;3.00;;
5585;SDS011;2815;54.094;12.112;2023-03-13T09:51:33;5.35;;;2.85;;
5585;SDS011;2815;54.094;12.112;2023-03-13T09:54:04;8.30;;;3.72;;
5585;SDS011;2815;54.094;12.112;2023-03-13T09:56:36;4.82;;;2.65;;
5585;SDS011;2815;54.094;12.112;2023-03-13T10:01:38;7.30;;;2.22;;
5585;SDS011;2815;54.094;12.112;2023-03-13T10:04:11;6.55;;;2.55;;
5585;SDS011;2815;54.094;12.112;2023-03-13T10:06:50;4.97;;;1.98;;
5585;SDS011;2815;54.094;12.112;2023-03-13T10:09:20;2.88;;;1.70;;
5585;SDS011;2815;54.094;12.112;2023-03-13T10:11:53;4.05;;;2.13;;
5585;SDS011;2815;54.094;12.112;2023-03-13T10:14:28;3.08;;;1.70;;
5585;SDS011;2815;54.094;12.112;2023-03-13T10:16:59;2.95;;;1.73;;
5585;SDS011;2815;54.094;12.112;2023-03-13T10:19:34;6.88;;;2.67;;
5585;SDS011;2815;54.094;12.112;2023-03-13T10:22:08;4.35;;;2.40;;
5585;SDS011;2815;54.094;12.112;2023-03-13T10:24:40;4.22;;;2.15;;
5585;SDS011;2815;54.094;12.112;2023-03-13T10:27:14;4.57;;;1.98;;
5585;SDS011;2815;54.094;12.112;2023-03-13T10:29:42;4.18;;;1.88;;
5585;SDS011;2815;54.094;12.112;2023-03-13T10:32:11;3.85;;;2.20;;
5585;SDS011;2815;54.094;12.112;2023-03-13T10:34:46;4.47;;;1.95;;
5585;SDS011;2815;54.094;12.112;2023-03-13T10:37:19;5.35;;;2.70;;
5585;SDS011;2815;54.094;12.112;2023-03-13T10:39:50;4.28;;;2.35;;
5585;SDS011;2815;54.094;12.112;2023-03-13T10:42:27;3.10;;;1.52;;
5585;SDS011;2815;54.094;12.112;2023-03-13T10:44:59;5.25;;;3.00;;
5585;SDS011;2815;54.094;12.112;2023-03-13T10:47:27;6.43;;;2.72;;
5585;SDS011;2815;54.094;12.112;2023-03-13T10:50:00;5.32;;;3.10;;
5585;SDS011;2815;54.094;12.112;2023-03-13T10:52:31;4.07;;;2.20;;
5585;SDS011;2815;54.094;12.112;2023-03-13T10:55:01;5.90;;;3.30;;
5585;SDS011;2815;54.094;12.112;2023-03-13T10:57:32;6.40;;;2.65;;
5585;SDS011;2815;54.094;12.112;2023-03-13T11:00:02;5.70;;;3.45;;
5585;SDS011;2815;54.094;12.112;2023-03-13T11:02:37;5.65;;;3.30;;
5585;SDS011;2815;54.094;12.112;2023-03-13T11:05:29;7.75;;;3.90;;
5585;SDS011;2815;54.094;12.112;2023-03-13T11:08:09;10.65;;;4.65;;
5585;SDS011;2815;54.094;12.112;2023-03-13T11:10:49;7.97;;;4.25;;
5585;SDS011;2815;54.094;12.112;2023-03-13T11:13:31;7.38;;;3.03;;
5585;SDS011;2815;54.094;12.112;2023-03-13T11:16:06;5.80;;;3.70;;
5585;SDS011;2815;54.094;12.112;2023-03-13T11:18:43;5.90;;;3.78;;
5585;SDS011;2815;54.094;12.112;2023-03-13T11:21:33;6.40;;;3.83;;
5585;SDS011;2815;54.094;12.112;2023-03-13T11:24:06;10.13;;;4.38;;
5585;SDS011;2815;54.094;12.112;2023-03-13T11:26:37;10.32;;;4.60;;
5585;SDS011;2815;54.094;12.112;2023-03-13T11:29:22;8.82;;;3.95;;
5585;SDS011;2815;54.094;12.112;2023-03-13T11:31:55;7.30;;;4.50;;
5585;SDS011;2815;54.094;12.112;2023-03-13T11:34:26;6.15;;;4.03;;
5585;SDS011;2815;54.094;12.112;2023-03-13T11:42:32;8.55;;;4.65;;
5585;SDS011;2815;54.094;12.112;2023-03-13T11:45:10;6.78;;;4.05;;
5585;SDS011;2815;54.094;12.112;2023-03-13T11:47:51;11.23;;;4.53;;
5585;SDS011;2815;54.094;12.112;2023-03-13T11:50:25;8.82;;;4.80;;
5585;SDS011;2815;54.094;12.112;2023-03-13T11:53:03;9.55;;;3.95;;
5585;SDS011;2815;54.094;12.112;2023-03-13T11:55:58;7.90;;;4.45;;
5585;SDS011;2815;54.094;12.112;2023-03-13T12:01:36;5.82;;;3.13;;
5585;SDS011;2815;54.094;12.112;2023-03-13T12:04:09;17.42;;;4.47;;
5585;SDS011;2815;54.094;12.112;2023-03-13T12:06:42;5.60;;;3.95;;
5585;SDS011;2815;54.094;12.112;2023-03-13T12:09:13;5.47;;;2.90;;
5585;SDS011;2815;54.094;12.112;2023-03-13T12:11:44;6.05;;;2.63;;
5585;SDS011;2815;54.094;12.112;2023-03-13T12:14:20;6.25;;;3.55;;
5585;SDS011;2815;54.094;12.112;2023-03-13T12:16:53;4.32;;;2.03;;
5585;SDS011;2815;54.094;12.112;2023-03-13T12:19:26;5.15;;;2.83;;
5585;SDS011;2815;54.094;12.112;2023-03-13T12:21:57;4.97;;;1.80;;
5585;SDS011;2815;54.094;12.112;2023-03-13T12:24:31;4.32;;;2.28;;
5585;SDS011;2815;54.094;12.112;2023-03-13T12:27:01;3.20;;;2.40;;
5585;SDS011;2815;54.094;12.112;2023-03-13T12:29:36;2.15;;;1.60;;
5585;SDS011;2815;54.094;12.112;2023-03-13T12:32:11;2.40;;;1.50;;
5585;SDS011;2815;54.094;12.112;2023-03-13T12:34:45;3.95;;;1.85;;
5585;SDS011;2815;54.094;12.112;2023-03-13T12:37:20;4.45;;;2.00;;
5585;SDS011;2815;54.094;12.112;2023-03-13T12:39:54;1.48;;;1.38;;
5585;SDS011;2815;54.094;12.112;2023-03-13T12:42:28;7.25;;;2.25;;
5585;SDS011;2815;54.094;12.112;2023-03-13T12:45:04;1.80;;;1.27;;
5585;SDS011;2815;54.094;12.112;2023-03-13T12:47:38;4.25;;;1.63;;
5585;SDS011;2815;54.094;12.112;2023-03-13T12:50:26;3.13;;;1.50;;
5585;SDS011;2815;54.094;12.112;2023-03-13T12:53:19;2.20;;;1.60;;
5585;SDS011;2815;54.094;12.112;2023-03-13T12:55:59;1.30;;;1.13;;
5585;SDS011;2815;54.094;12.112;2023-03-13T12:58:40;3.00;;;1.27;;
5585;SDS011;2815;54.094;12.112;2023-03-13T13:01:12;3.65;;;1.10;;
5585;SDS011;2815;54.094;12.112;2023-03-13T13:03:48;3.70;;;2.00;;
5585;SDS011;2815;54.094;12.112;2023-03-13T13:06:17;1.73;;;1.23;;
5585;SDS011;2815;54.094;12.112;2023-03-13T13:08:47;1.40;;;1.30;;
5585;SDS011;2815;54.094;12.112;2023-03-13T13:17:31;2.13;;;1.13;;
5585;SDS011;2815;54.094;12.112;2023-03-13T13:32:35;2.17;;;1.30;;
5585;SDS011;2815;54.094;12.112;2023-03-13T13:41:03;2.13;;;1.25;;
5585;SDS011;2815;54.094;12.112;2023-03-13T13:43:48;3.33;;;1.65;;
5585;SDS011;2815;54.094;12.112;2023-03-13T13:46:23;2.53;;;1.60;;
5585;SDS011;2815;54.094;12.112;2023-03-13T13:49:10;3.45;;;1.30;;
5585;SDS011;2815;54.094;12.112;2023-03-13T13:51:42;3.80;;;2.10;;
5585;SDS011;2815;54.094;12.112;2023-03-13T13:54:52;4.13;;;1.65;;
5585;SDS011;2815;54.094;12.112;2023-03-13T13:57:22;2.08;;;1.10;;
5585;SDS011;2815;54.094;12.112;2023-03-13T13:59:52;1.25;;;1.08;;
5585;SDS011;2815;54.094;12.112;2023-03-13T14:02:23;1.65;;;1.13;;
5585;SDS011;2815;54.094;12.112;2023-03-13T14:04:53;2.58;;;1.50;;
5585;SDS011;2815;54.094;12.112;2023-03-13T14:07:27;1.33;;;1.20;;
5585;SDS011;2815;54.094;12.112;2023-03-13T14:09:59;4.00;;;1.20;;
5585;SDS011;2815;54.094;12.112;2023-03-13T14:15:06;4.18;;;1.17;;
5585;SDS011;2815;54.094;12.112;2023-03-13T14:17:39;1.95;;;1.17;;
5585;SDS011;2815;54.094;12.112;2023-03-13T14:23:01;3.40;;;1.45;;
5585;SDS011;2815;54.094;12.112;2023-03-13T14:25:40;2.00;;;0.90;;
5585;SDS011;2815;54.094;12.112;2023-03-13T14:28:16;4.35;;;1.60;;
5585;SDS011;2815;54.094;12.112;2023-03-13T14:30:47;2.10;;;1.00;;
5585;SDS011;2815;54.094;12.112;2023-03-13T14:33:16;1.70;;;1.17;;
5585;SDS011;2815;54.094;12.112;2023-03-13T14:35:44;3.50;;;1.30;;
5585;SDS011;2815;54.094;12.112;2023-03-13T14:38:18;4.18;;;1.80;;
5585;SDS011;2815;54.094;12.112;2023-03-13T14:40:48;4.32;;;1.20;;
5585;SDS011;2815;54.094;12.112;2023-03-13T14:43:20;2.03;;;1.30;;
5585;SDS011;2815;54.094;12.112;2023-03-13T14:45:57;2.58;;;1.33;;
5585;SDS011;2815;54.094;12.112;2023-03-13T14:48:26;2.28;;;1.30;;
5585;SDS011;2815;54.094;12.112;2023-03-13T14:51:00;5.93;;;1.70;;
5585;SDS011;2815;54.094;12.112;2023-03-13T14:53:53;3.60;;;0.98;;
5585;SDS011;2815;54.094;12.112;2023-03-13T14:56:29;5.63;;;1.42;;
5585;SDS011;2815;54.094;12.112;2023-03-13T14:59:06;3.78;;;1.38;;
5585;SDS011;2815;54.094;12.112;2023-03-13T15:01:35;2.55;;;1.15;;
5585;SDS011;2815;54.094;12.112;2023-03-13T15:04:03;5.10;;;1.08;;
5585;SDS011;2815;54.094;12.112;2023-03-13T15:06:31;1.13;;;0.75;;
5585;SDS011;2815;54.094;12.112;2023-03-13T15:09:20;3.20;;;1.30;;
5585;SDS011;2815;54.094;12.112;2023-03-13T15:11:53;1.98;;;1.10;;
5585;SDS011;2815;54.094;12.112;2023-03-13T15:14:36;3.72;;;1.20;;
5585;SDS011;2815;54.094;12.112;2023-03-13T15:17:10;9.45;;;1.17;;
5585;SDS011;2815;54.094;12.112;2023-03-13T15:19:41;3.35;;;1.17;;
5585;SDS011;2815;54.094;12.112;2023-03-13T15:22:12;3.15;;;1.13;;
5585;SDS011;2815;54.094;12.112;2023-03-13T15:24:43;2.00;;;1.10;;
5585;SDS011;2815;54.094;12.112;2023-03-13T15:27:31;7.03;;;1.23;;
5585;SDS011;2815;54.094;12.112;2023-03-13T15:29:59;6.43;;;1.52;;
5585;SDS011;2815;54.094;12.112;2023-03-13T15:32:28;2.35;;;1.10;;
5585;SDS011;2815;54.094;12.112;2023-03-13T15:34:58;5.45;;;1.20;;
5585;SDS011;2815;54.094;12.112;2023-03-13T15:37:27;1.60;;;1.05;;
5585;SDS011;2815;54.094;12.112;2023-03-13T15:39:57;3.58;;;1.23;;
5585;SDS011;2815;54.094;12.112;2023-03-13T15:42:26;3.22;;;0.98;;
5585;SDS011;2815;54.094;12.112;2023-03-13T15:44:54;4.50;;;1.20;;
5585;SDS011;2815;54.094;12.112;2023-03-13T15:47:22;2.60;;;0.98;;
5585;SDS011;2815;54.094;12.112;2023-03-13T15:49:50;1.52;;;0.90;;
5585;SDS011;2815;54.094;12.112;2023-03-13T15:52:19;1.70;;;0.82;;
5585;SDS011;2815;54.094;12.112;2023-03-13T15:54:49;3.08;;;1.10;;
5585;SDS011;2815;54.094;12.112;2023-03-13T15:57:20;2.22;;;0.73;;
5585;SDS011;2815;54.094;12.112;2023-03-13T15:59:50;2.37;;;1.50;;
5585;SDS011;2815;54.094;12.112;2023-03-13T16:02:19;1.85;;;0.80;;
5585;SDS011;2815;54.094;12.112;2023-03-13T16:04:49;1.48;;;1.00;;
5585;SDS011;2815;54.094;12.112;2023-03-13T16:07:18;2.80;;;1.20;;
5585;SDS011;2815;54.094;12.112;2023-03-13T16:09:47;1.98;;;0.88;;
5585;SDS011;2815;54.094;12.112;2023-03-13T16:12:15;2.47;;;1.10;;
5585;SDS011;2815;54.094;12.112;2023-03-13T16:14:45;1.58;;;0.80;;
5585;SDS011;2815;54.094;12.112;2023-03-13T16:17:13;2.00;;;0.90;;